createdAt,value
2018-03-02T00:00:02.813Z,8.10
2018-03-02T00:02:30.470Z,10.10
2018-03-02T00:04:58.264Z,13.20
2018-03-02T00:07:26.043Z,7.40
2018-03-02T00:09:53.753Z,8.20
2018-03-02T00:12:21.384Z,10.30
2018-03-02T00:14:49.032Z,12.50
2018-03-02T00:17:16.736Z,11.63
2018-03-02T00:19:44.398Z,9.83
2018-03-02T00:22:12.077Z,8.77
2018-03-02T00:24:39.753Z,12.27
2018-03-02T00:27:07.336Z,8.90
2018-03-02T00:29:35.005Z,10.57
2018-03-02T00:32:02.692Z,13.73
2018-03-02T00:34:30.262Z,5.07
2018-03-02T00:36:57.884Z,12.97
2018-03-02T00:39:25.491Z,10.35
2018-03-02T00:41:53.195Z,9.60
2018-03-02T00:44:20.969Z,8.95
2018-03-02T00:46:48.630Z,12.57
2018-03-02T00:49:16.306Z,12.67
2018-03-02T00:51:43.989Z,13.73
2018-03-02T00:54:11.655Z,11.60
2018-03-02T00:56:39.447Z,11.68
2018-03-02T00:59:07.185Z,13.62
2018-03-02T01:01:34.898Z,9.60
2018-03-02T01:04:02.500Z,14.43
2018-03-02T01:06:30.155Z,15.82
2018-03-02T01:08:57.777Z,15.10
2018-03-02T01:11:25.360Z,14.27
2018-03-02T01:13:53.020Z,9.23
2018-03-02T01:16:20.602Z,10.55
2018-03-02T01:18:48.180Z,12.00
2018-03-02T01:21:15.957Z,13.97
2018-03-02T01:23:43.665Z,15.35
2018-03-02T01:26:11.655Z,8.07
2018-03-02T01:28:39.315Z,11.13
2018-03-02T01:31:07.107Z,12.13
2018-03-02T01:33:34.982Z,12.15
2018-03-02T01:36:02.588Z,11.60
2018-03-02T01:38:30.438Z,13.68
2018-03-02T01:40:58.105Z,10.90
2018-03-02T01:43:25.851Z,14.18
2018-03-02T01:45:53.619Z,12.48
2018-03-02T01:48:21.444Z,16.95
2018-03-02T01:50:49.323Z,13.80
2018-03-02T01:53:17.169Z,12.57
2018-03-02T01:55:44.806Z,15.43
2018-03-02T01:58:12.547Z,14.50
2018-03-02T02:00:40.233Z,11.05
2018-03-02T02:03:07.820Z,14.60
2018-03-02T02:05:35.480Z,15.80
2018-03-02T02:08:03.216Z,17.30
2018-03-02T02:10:31.035Z,12.85
2018-03-02T02:12:58.873Z,12.95
2018-03-02T02:15:26.474Z,13.20
2018-03-02T02:17:54.264Z,17.37
2018-03-02T02:20:21.921Z,13.98
2018-03-02T02:22:49.610Z,19.20
2018-03-02T02:25:17.396Z,15.60
2018-03-02T02:27:45.050Z,18.42
2018-03-02T02:30:12.848Z,13.77
2018-03-02T02:32:40.475Z,18.02
2018-03-02T02:35:08.060Z,19.65
2018-03-02T02:37:35.879Z,18.25
2018-03-02T02:40:03.758Z,12.90
2018-03-02T02:42:31.528Z,11.95
2018-03-02T02:44:59.153Z,13.55
2018-03-02T02:47:26.984Z,16.30
2018-03-02T02:49:54.757Z,14.25
2018-03-02T02:52:22.425Z,13.60
2018-03-02T02:54:50.218Z,13.75
2018-03-02T02:57:17.979Z,16.27
2018-03-02T02:59:45.773Z,15.40
2018-03-02T03:02:13.537Z,11.32
2018-03-02T03:04:41.429Z,15.48
2018-03-02T03:07:09.152Z,13.00
2018-03-02T03:09:36.879Z,13.48
2018-03-02T03:12:04.647Z,16.35
2018-03-02T03:14:32.434Z,14.27
2018-03-02T03:17:00.168Z,21.33
2018-03-02T03:19:27.880Z,19.20
2018-03-02T03:21:55.549Z,17.85
2018-03-02T03:24:23.228Z,18.17
2018-03-02T03:26:50.877Z,18.48
2018-03-02T03:29:18.691Z,12.23
2018-03-02T03:31:46.355Z,20.52
2018-03-02T03:34:14.104Z,19.70
2018-03-02T03:36:41.928Z,17.92
2018-03-02T03:39:09.802Z,14.35
2018-03-02T03:41:37.573Z,13.90
2018-03-02T03:44:05.363Z,15.82
2018-03-02T03:46:33.111Z,20.10
2018-03-02T03:49:00.698Z,21.35
2018-03-02T03:51:28.345Z,11.75
2018-03-02T03:53:56.012Z,15.77
2018-03-02T03:56:23.617Z,23.52
2018-03-02T03:58:51.294Z,19.58
2018-03-02T04:01:18.980Z,16.73
2018-03-02T04:03:46.560Z,20.92
2018-03-02T04:06:14.194Z,16.85
2018-03-02T04:08:41.906Z,20.85
2018-03-02T04:11:09.786Z,16.52
2018-03-02T04:13:37.379Z,16.48
2018-03-02T04:16:05.035Z,15.18
2018-03-02T04:18:32.702Z,10.50
2018-03-02T04:21:00.375Z,12.50
2018-03-02T04:23:28.162Z,17.12
2018-03-02T04:25:56.045Z,18.77
2018-03-02T04:28:23.712Z,11.00
2018-03-02T04:30:51.392Z,14.55
2018-03-02T04:33:19.061Z,19.98
2018-03-02T04:35:46.857Z,22.20
2018-03-02T04:38:14.582Z,12.35
2018-03-02T04:40:42.217Z,19.87
2018-03-02T04:43:10.164Z,21.10
2018-03-02T04:45:38.014Z,18.62
2018-03-02T04:48:05.631Z,23.17
2018-03-02T04:50:33.257Z,20.30
2018-03-02T04:53:00.979Z,22.40
2018-03-02T04:55:28.646Z,9.95
2018-03-02T04:57:56.252Z,23.95
2018-03-02T05:00:23.911Z,15.07
2018-03-02T05:02:51.572Z,20.70
2018-03-02T05:05:19.157Z,21.42
2018-03-02T05:07:46.817Z,20.58
2018-03-02T05:10:14.500Z,19.10
2018-03-02T05:12:42.175Z,22.00
2018-03-02T05:15:09.957Z,20.73
2018-03-02T05:17:37.735Z,18.48
2018-03-02T05:20:05.405Z,19.15
2018-03-02T05:22:33.062Z,19.92
2018-03-02T05:25:00.869Z,25.25
2018-03-02T05:27:28.453Z,18.73
2018-03-02T05:29:56.098Z,25.60
2018-03-02T05:32:23.694Z,20.15
2018-03-02T05:34:51.346Z,18.95
2018-03-02T05:37:19.096Z,19.50
2018-03-02T05:39:46.807Z,21.30
2018-03-02T05:42:14.388Z,16.52
2018-03-02T05:44:42.115Z,19.98
2018-03-02T05:47:09.734Z,19.33
2018-03-02T05:49:37.473Z,23.55
2018-03-02T05:52:05.290Z,16.33
2018-03-02T05:54:33.070Z,17.98
2018-03-02T05:57:00.851Z,19.12
2018-03-02T05:59:28.689Z,24.95
2018-03-02T06:01:56.453Z,22.42
2018-03-02T06:04:24.143Z,24.10
2018-03-02T06:06:51.777Z,28.45
2018-03-02T06:09:19.562Z,17.92
2018-03-02T06:11:47.221Z,15.68
2018-03-02T06:14:14.813Z,21.83
2018-03-02T06:16:42.557Z,21.15
2018-03-02T06:19:10.338Z,20.50
2018-03-02T06:21:37.916Z,16.80
2018-03-02T06:24:05.687Z,23.33
2018-03-02T06:26:33.362Z,28.15
2018-03-02T06:29:01.031Z,25.37
2018-03-02T06:31:28.952Z,28.38
2018-03-02T06:33:56.584Z,14.07
2018-03-02T06:36:24.241Z,14.73
2018-03-02T06:38:51.928Z,11.95
2018-03-02T06:41:19.630Z,21.00
2018-03-02T06:43:47.294Z,24.10
2018-03-02T06:46:14.886Z,17.00
2018-03-02T06:48:42.639Z,21.17
2018-03-02T06:51:10.422Z,20.92
2018-03-02T06:53:38.091Z,13.07
2018-03-02T06:56:05.877Z,24.80
2018-03-02T06:58:33.652Z,25.88
2018-03-02T07:01:01.328Z,21.65
2018-03-02T07:03:29.109Z,13.07
2018-03-02T07:05:56.769Z,20.08
2018-03-02T07:08:24.445Z,18.95
2018-03-02T07:10:52.133Z,25.37
2018-03-02T07:13:20.032Z,25.00
2018-03-02T07:15:47.787Z,17.70
2018-03-02T07:18:15.386Z,22.75
2018-03-02T07:20:43.099Z,21.25
2018-03-02T07:23:10.814Z,27.50
2018-03-02T07:25:38.379Z,28.25
2018-03-02T07:28:06.022Z,26.15
2018-03-02T07:30:33.638Z,14.00
2018-03-02T07:33:01.350Z,21.58
2018-03-02T07:35:29.079Z,24.40
2018-03-02T07:37:56.762Z,18.48
2018-03-02T07:40:24.436Z,18.70
2018-03-02T07:42:52.104Z,21.58
2018-03-02T07:45:19.675Z,25.20
2018-03-02T07:47:47.464Z,20.45
2018-03-02T07:50:15.071Z,23.50
2018-03-02T07:52:42.864Z,22.37
2018-03-02T07:55:10.444Z,25.50
2018-03-02T07:57:38.041Z,25.40
2018-03-02T08:00:05.841Z,26.15
2018-03-02T08:02:33.423Z,20.48
2018-03-02T08:05:01.138Z,18.10
2018-03-02T08:07:28.784Z,17.60
2018-03-02T08:09:56.538Z,29.65
2018-03-02T08:12:24.313Z,24.17
2018-03-02T08:14:51.966Z,19.30
2018-03-02T08:17:19.540Z,24.45
2018-03-02T08:19:47.130Z,18.25
2018-03-02T08:22:14.770Z,21.62
2018-03-02T08:24:42.477Z,17.02
2018-03-02T08:27:10.211Z,29.58
2018-03-02T08:29:37.883Z,27.23
2018-03-02T08:32:05.504Z,13.70
2018-03-02T08:34:33.174Z,13.95
2018-03-02T08:37:00.858Z,23.83
2018-03-02T08:39:28.537Z,19.35
2018-03-02T08:41:56.116Z,14.80
2018-03-02T08:44:23.885Z,24.25
2018-03-02T08:46:51.505Z,22.00
2018-03-02T08:49:19.105Z,28.15
2018-03-02T08:51:46.735Z,23.30
2018-03-02T08:54:14.440Z,21.45
2018-03-02T08:56:42.101Z,21.83
2018-03-02T08:59:09.818Z,22.90
2018-03-02T09:01:37.560Z,24.27
2018-03-02T09:04:05.188Z,26.33
2018-03-02T09:06:32.842Z,29.95
2018-03-02T09:09:00.535Z,26.23
2018-03-02T09:11:28.320Z,21.80
2018-03-02T09:13:55.930Z,31.17
2018-03-02T09:16:23.532Z,28.30
2018-03-02T09:18:51.344Z,26.10
2018-03-02T09:21:19.111Z,22.13
2018-03-02T09:23:46.708Z,27.67
2018-03-02T09:26:14.287Z,18.03
2018-03-02T09:28:42.134Z,31.33
2018-03-02T09:31:09.817Z,19.33
2018-03-02T09:33:37.501Z,20.80
2018-03-02T09:36:05.158Z,25.07
2018-03-02T09:38:32.801Z,20.10
2018-03-02T09:41:00.371Z,27.17
2018-03-02T09:43:27.971Z,16.93
2018-03-02T09:45:55.629Z,23.83
2018-03-02T09:48:23.445Z,31.57
2018-03-02T09:50:51.120Z,26.43
2018-03-02T09:53:18.775Z,25.87
2018-03-02T09:55:46.576Z,19.10
2018-03-02T09:58:14.249Z,28.90
2018-03-02T10:00:41.912Z,30.37
2018-03-02T10:03:09.586Z,23.73
2018-03-02T10:05:37.231Z,25.40
2018-03-02T10:08:04.859Z,27.60
2018-03-02T10:10:32.587Z,22.07
2018-03-02T10:13:00.196Z,18.93
2018-03-02T10:15:27.875Z,24.10
2018-03-02T10:17:55.533Z,27.67
2018-03-02T10:20:23.209Z,26.37
2018-03-02T10:22:50.891Z,23.17
2018-03-02T10:25:18.569Z,22.90
2018-03-02T10:27:46.206Z,23.40
2018-03-02T10:30:13.836Z,29.83
2018-03-02T10:32:41.457Z,29.00
2018-03-02T10:35:09.274Z,30.03
2018-03-02T10:37:37.157Z,33.23
2018-03-02T10:40:04.828Z,22.03
2018-03-02T10:42:32.504Z,20.50
2018-03-02T10:45:00.292Z,28.23
2018-03-02T10:47:28.009Z,27.20
2018-03-02T10:49:55.735Z,23.23
2018-03-02T10:52:23.327Z,30.93
2018-03-02T10:54:50.986Z,27.23
2018-03-02T10:57:18.765Z,23.27
2018-03-02T10:59:46.335Z,25.33
2018-03-02T11:02:19.715Z,21.33
2018-03-02T11:04:47.422Z,33.97
2018-03-02T11:07:15.190Z,27.57
2018-03-02T11:09:42.783Z,30.40
2018-03-02T11:12:10.417Z,26.27
2018-03-02T11:14:38.028Z,26.77
2018-03-02T11:17:05.788Z,32.50
2018-03-02T11:19:33.355Z,28.13
2018-03-02T11:22:01.028Z,18.47
2018-03-02T11:24:28.595Z,27.67
2018-03-02T11:26:56.292Z,20.53
2018-03-02T11:29:23.914Z,20.50
2018-03-02T11:31:51.487Z,20.30
2018-03-02T11:34:19.218Z,34.43
2018-03-02T11:36:46.895Z,30.90
2018-03-02T11:39:14.472Z,26.23
2018-03-02T11:41:42.140Z,23.70
2018-03-02T11:44:09.802Z,31.17
2018-03-02T11:46:37.483Z,31.30
2018-03-02T11:49:05.370Z,25.20
2018-03-02T11:51:33.103Z,34.70
2018-03-02T11:54:00.724Z,22.47
2018-03-02T11:56:28.385Z,34.43
2018-03-02T11:58:56.097Z,23.57
2018-03-02T12:01:23.752Z,27.87
2018-03-02T12:03:51.403Z,22.67
2018-03-02T12:06:19.106Z,26.30
2018-03-02T12:08:46.751Z,22.23
2018-03-02T12:11:14.345Z,32.37
2018-03-02T12:13:41.948Z,28.43
2018-03-02T12:16:09.572Z,26.20
2018-03-02T12:18:37.140Z,24.07
2018-03-02T12:21:04.842Z,25.83
2018-03-02T12:23:32.507Z,26.53
2018-03-02T12:26:00.078Z,25.03
2018-03-02T12:28:27.763Z,30.50
2018-03-02T12:30:55.345Z,18.13
2018-03-02T12:33:22.922Z,18.47
2018-03-02T12:35:50.573Z,19.97
2018-03-02T12:38:18.255Z,20.20
2018-03-02T12:40:45.822Z,20.37
2018-03-02T12:43:13.635Z,21.33
2018-03-02T12:45:41.227Z,23.73
2018-03-02T12:48:09.071Z,21.70
2018-03-02T12:50:36.693Z,19.73
2018-03-02T12:53:04.351Z,19.90
2018-03-02T12:55:31.937Z,27.33
2018-03-02T12:57:59.523Z,22.50
2018-03-02T13:00:27.134Z,23.30
2018-03-02T13:02:55.020Z,16.27
2018-03-02T13:05:22.785Z,23.03
2018-03-02T13:07:50.678Z,23.20
2018-03-02T13:10:18.248Z,16.30
2018-03-02T13:12:45.922Z,19.63
2018-03-02T13:15:13.591Z,14.97
2018-03-02T13:17:41.321Z,22.87
2018-03-02T13:20:08.938Z,18.87
2018-03-02T13:22:43.287Z,22.13
2018-03-02T13:25:10.866Z,18.50
2018-03-02T13:27:50.407Z,22.87
2018-03-02T13:30:18.288Z,14.93
2018-03-02T13:32:51.874Z,18.30
2018-03-02T13:35:19.551Z,16.43
2018-03-02T13:37:47.127Z,23.67
2018-03-02T13:40:26.605Z,23.60
2018-03-02T13:42:54.276Z,21.70
2018-03-02T13:45:22.163Z,21.80
2018-03-02T13:51:02.865Z,13.17
2018-03-02T13:53:30.554Z,18.73
2018-03-02T13:55:58.230Z,21.43
2018-03-02T13:58:25.868Z,14.63
2018-03-02T14:00:53.454Z,20.10
2018-03-02T14:03:33.138Z,16.97
2018-03-02T14:06:00.808Z,15.47
2018-03-02T14:08:28.466Z,13.57
2018-03-02T14:10:56.098Z,19.97
2018-03-02T14:13:23.709Z,18.90
2018-03-02T14:15:51.583Z,20.73
2018-03-02T14:18:19.296Z,16.03
2018-03-02T14:20:46.949Z,21.53
2018-03-02T14:23:14.760Z,17.27
2018-03-02T14:25:42.718Z,21.23
2018-03-02T14:28:10.324Z,20.37
2018-03-02T14:30:37.972Z,15.00
2018-03-02T14:33:05.581Z,15.07
2018-03-02T14:35:33.197Z,15.73
2018-03-02T14:38:00.770Z,16.67
2018-03-02T14:40:28.366Z,21.57
2018-03-02T14:42:56.042Z,15.07
2018-03-02T14:45:23.612Z,12.80
2018-03-02T14:47:51.295Z,19.90
2018-03-02T14:50:19.068Z,18.63
2018-03-02T14:52:46.738Z,17.10
2018-03-02T14:55:14.321Z,13.40
2018-03-02T14:57:41.981Z,15.90
2018-03-02T15:00:09.556Z,21.00
2018-03-02T15:02:37.152Z,19.00
2018-03-02T15:05:04.776Z,17.67
2018-03-02T15:07:32.393Z,13.37
2018-03-02T15:09:59.986Z,13.37
2018-03-02T15:12:27.687Z,14.43
2018-03-02T15:14:55.400Z,15.27
2018-03-02T15:17:23.073Z,11.13
2018-03-02T15:19:50.756Z,18.60
2018-03-02T15:22:18.426Z,15.00
2018-03-02T15:24:46.212Z,12.40
2018-03-02T15:27:13.888Z,12.77
2018-03-02T15:29:41.565Z,12.30
2018-03-02T15:32:09.214Z,11.50
2018-03-02T15:34:36.918Z,13.77
2018-03-02T15:37:04.571Z,17.70
2018-03-02T15:39:32.370Z,14.93
2018-03-02T15:42:00.050Z,14.93
2018-03-02T15:44:28.745Z,12.77
2018-03-02T15:46:56.533Z,13.10
2018-03-02T15:49:24.254Z,13.00
2018-03-02T15:51:51.977Z,12.07
2018-03-02T15:54:19.643Z,14.70
2018-03-02T15:56:47.327Z,9.83
2018-03-02T15:59:14.928Z,14.57
2018-03-02T16:01:42.572Z,12.90
2018-03-02T16:04:10.240Z,11.23
2018-03-02T16:06:37.905Z,14.37
2018-03-02T16:09:05.597Z,14.80
2018-03-02T16:11:33.259Z,12.40
2018-03-02T16:14:00.827Z,15.13
2018-03-02T16:16:28.631Z,14.33
2018-03-02T16:18:56.288Z,13.20
2018-03-02T16:21:23.970Z,11.73
2018-03-02T16:23:51.583Z,15.30
2018-03-02T16:26:19.217Z,14.33
2018-03-02T16:28:46.806Z,14.83
2018-03-02T16:31:14.421Z,14.57
2018-03-02T16:33:42.057Z,14.00
2018-03-02T16:36:09.708Z,14.33
2018-03-02T16:38:37.382Z,11.63
2018-03-02T16:41:05.182Z,14.67
2018-03-02T16:43:32.855Z,14.50
2018-03-02T16:46:00.534Z,12.03
2018-03-02T16:48:28.304Z,13.13
2018-03-02T16:50:56.086Z,12.03
2018-03-02T16:53:23.723Z,16.73
2018-03-02T16:55:51.324Z,15.30
2018-03-02T16:58:19.011Z,18.70
2018-03-02T17:00:46.644Z,14.70
2018-03-02T17:03:14.257Z,11.07
2018-03-02T17:05:41.863Z,8.13
2018-03-02T17:08:09.511Z,9.30
2018-03-02T17:10:37.177Z,10.57
2018-03-02T17:13:04.835Z,17.07
2018-03-02T17:15:32.521Z,12.00
2018-03-02T17:18:00.131Z,14.10
2018-03-02T17:20:27.729Z,17.43
2018-03-02T17:22:55.544Z,19.10
2018-03-02T17:25:23.123Z,16.23
2018-03-02T17:27:50.743Z,17.50
2018-03-02T17:30:18.378Z,13.47
2018-03-02T17:32:46.054Z,12.97
2018-03-02T17:35:13.717Z,17.10
2018-03-02T17:37:41.508Z,13.43
2018-03-02T17:40:09.102Z,15.33
2018-03-02T17:42:36.695Z,14.90
2018-03-02T17:45:04.414Z,18.43
2018-03-02T17:47:32.094Z,17.00
2018-03-02T17:49:59.669Z,12.43
2018-03-02T17:52:27.328Z,18.83
2018-03-02T17:54:54.899Z,13.80
2018-03-02T17:57:22.606Z,17.83
2018-03-02T17:59:50.276Z,17.57
2018-03-02T18:02:17.953Z,14.40
2018-03-02T18:04:45.534Z,24.13
2018-03-02T18:07:13.289Z,23.37
2018-03-02T18:09:40.949Z,16.90
2018-03-02T18:12:08.515Z,20.97
2018-03-02T18:14:36.227Z,19.80
2018-03-02T18:17:03.809Z,16.57
2018-03-02T18:19:31.464Z,19.80
2018-03-02T18:21:59.357Z,19.77
2018-03-02T18:24:27.122Z,12.57
2018-03-02T18:26:54.810Z,16.70
2018-03-02T18:29:22.439Z,15.47
2018-03-02T18:31:50.046Z,12.37
2018-03-02T18:34:17.628Z,22.47
2018-03-02T18:36:45.299Z,16.50
2018-03-02T18:39:12.911Z,13.37
2018-03-02T18:41:40.761Z,20.23
2018-03-02T18:44:08.543Z,19.73
2018-03-02T18:46:36.193Z,23.67
2018-03-02T18:49:03.831Z,24.37
2018-03-02T18:51:31.455Z,18.23
2018-03-02T18:53:59.141Z,20.47
2018-03-02T18:56:26.725Z,28.10
2018-03-02T18:58:54.479Z,17.13
2018-03-02T19:01:22.154Z,27.80
2018-03-02T19:03:49.841Z,24.30
2018-03-02T19:06:17.473Z,18.83
2018-03-02T19:08:45.183Z,22.53
2018-03-02T19:11:12.971Z,23.37
2018-03-02T19:13:40.624Z,21.33
2018-03-02T19:16:08.322Z,19.60
2018-03-02T19:18:35.897Z,30.17
2018-03-02T19:21:03.770Z,16.03
2018-03-02T19:23:31.399Z,20.13
2018-03-02T19:25:59.124Z,28.90
2018-03-02T19:28:27.007Z,21.20
2018-03-02T19:30:54.862Z,21.67
2018-03-02T19:33:22.665Z,30.67
2018-03-02T19:35:50.516Z,29.33
2018-03-02T19:38:18.323Z,28.43
2018-03-02T19:40:46.206Z,27.90
2018-03-02T19:43:14.065Z,29.17
2018-03-02T19:45:41.863Z,34.90
2018-03-02T19:48:09.564Z,30.63
2018-03-02T19:50:37.489Z,20.67
2018-03-02T19:53:05.282Z,27.27
2018-03-02T19:55:33.074Z,20.03
2018-03-02T19:58:00.954Z,27.50
2018-03-02T20:00:28.706Z,26.50
2018-03-02T20:02:56.510Z,26.27
2018-03-02T20:05:24.398Z,38.93
2018-03-02T20:07:52.169Z,25.53
2018-03-02T20:10:19.947Z,20.10
2018-03-02T20:12:47.827Z,24.97
2018-03-02T20:15:15.710Z,18.17
2018-03-02T20:17:43.571Z,27.10
2018-03-02T20:20:11.334Z,32.30
2018-03-02T20:22:39.043Z,28.20
2018-03-02T20:25:06.820Z,27.03
2018-03-02T20:27:34.596Z,32.10
2018-03-02T20:30:02.478Z,28.43
2018-03-02T20:32:30.060Z,28.57
2018-03-02T20:34:57.721Z,23.47
2018-03-02T20:37:25.497Z,23.20
2018-03-02T20:39:53.176Z,30.33
2018-03-02T20:42:20.932Z,22.20
2018-03-02T20:44:48.541Z,19.90
2018-03-02T20:47:16.266Z,27.13
2018-03-02T20:49:43.877Z,24.90
2018-03-02T20:52:11.551Z,20.57
2018-03-02T20:54:39.432Z,26.47
2018-03-02T20:57:07.095Z,33.27
2018-03-02T20:59:34.888Z,18.07
2018-03-02T21:02:02.560Z,17.47
2018-03-02T21:04:30.320Z,28.90
2018-03-02T21:06:57.896Z,34.63
2018-03-02T21:09:25.513Z,21.40
2018-03-02T21:11:53.775Z,20.40
2018-03-02T21:14:21.354Z,23.73
2018-03-02T21:16:48.967Z,24.70
2018-03-02T21:19:16.701Z,27.37
2018-03-02T21:21:44.372Z,26.87
2018-03-02T21:24:11.970Z,15.60
2018-03-02T21:26:39.621Z,26.67
2018-03-02T21:29:07.287Z,14.20
2018-03-02T21:31:34.859Z,12.37
2018-03-02T21:34:02.486Z,22.97
2018-03-02T21:36:30.209Z,30.33
2018-03-02T21:38:57.774Z,23.77
2018-03-02T21:41:25.458Z,28.50
2018-03-02T21:43:53.079Z,18.17
2018-03-02T21:46:20.655Z,16.90
2018-03-02T21:48:48.278Z,27.63
2018-03-02T21:51:15.898Z,23.87
2018-03-02T21:53:43.532Z,29.53
2018-03-02T21:56:11.199Z,19.63
2018-03-02T21:58:38.767Z,22.60
2018-03-02T22:01:06.463Z,19.17
2018-03-02T22:03:34.238Z,32.30
2018-03-02T22:06:01.864Z,21.60
2018-03-02T22:08:30.518Z,21.97
2018-03-02T22:10:58.138Z,26.93
2018-03-02T22:13:25.704Z,30.13
2018-03-02T22:15:53.290Z,20.07
2018-03-02T22:18:20.892Z,24.63
2018-03-02T22:20:48.506Z,20.97
2018-03-02T22:23:16.100Z,22.73
2018-03-02T22:25:43.822Z,23.17
2018-03-02T22:28:11.457Z,27.40
2018-03-02T22:30:39.083Z,20.10
2018-03-02T22:33:06.658Z,25.57
2018-03-02T22:35:34.432Z,14.40
2018-03-02T22:38:02.096Z,25.03
2018-03-02T22:40:29.773Z,21.33
2018-03-02T22:42:57.387Z,18.80
2018-03-02T22:45:25.016Z,27.47
2018-03-02T22:47:52.639Z,24.20
2018-03-02T22:50:20.271Z,26.43
2018-03-02T22:52:47.847Z,26.10
2018-03-02T22:55:15.460Z,22.00
2018-03-02T22:57:43.040Z,33.67
2018-03-02T23:00:10.777Z,29.20
2018-03-02T23:02:38.362Z,26.20
2018-03-02T23:05:06.072Z,13.87
2018-03-02T23:07:33.661Z,16.57
2018-03-02T23:10:01.293Z,20.13
2018-03-02T23:12:28.952Z,15.10
2018-03-02T23:14:56.524Z,23.50
2018-03-02T23:17:24.145Z,19.00
2018-03-02T23:19:51.773Z,20.03
2018-03-02T23:22:19.426Z,15.97
2018-03-02T23:24:47.121Z,28.30
2018-03-02T23:27:14.902Z,22.00
2018-03-02T23:29:42.485Z,17.60
2018-03-02T23:32:10.255Z,18.57
2018-03-02T23:34:37.887Z,26.97
2018-03-02T23:37:05.486Z,24.77
2018-03-02T23:39:33.127Z,15.90
2018-03-02T23:42:00.855Z,18.07
2018-03-02T23:44:28.438Z,20.47
2018-03-02T23:46:56.199Z,20.07
2018-03-02T23:49:23.873Z,20.43
2018-03-02T23:51:51.606Z,27.10
2018-03-02T23:54:19.184Z,20.67
2018-03-02T23:56:46.761Z,25.17
2018-03-02T23:59:14.524Z,28.23
